Cody, WY

11:34 AM MST on February 12, 2016 (GMT -0700)
Valley View | | Change Station
CLOSE
Current Station
Personal Weather Station
Location: Cody, WY
Elevation: 5166 ft
Nearby Weather Stations

Elev 5166 ft 44.51 °N, 109.10 °W | Updated 3 minutes ago

Clear
Clear
50.4 °F
Feels Like 50.4 °F
N
1.0
Wind Variable Wind from WSW
Gusts 6.0 mph

Today
High -- | Low -- °F
--% Chance of Precip.
Yesterday
High -- | Low -- °F
Precip. -- in
Pressure 30.22 in
Visibility 10.0 miles
Clouds Clear
Dew Point 25 °F
Humidity 37%
Rainfall 0.00 in
Snow Depth Not available.
7:21 AM 5:40 PM
Waxing Crescent, 22% visible
METAR KCOD 121815Z AUTO 00000KT 10SM CLR 10/M04 A3022 RMK AO1
Pressure 30.22 in
Visibility 10.0 miles
Clouds Clear
Dew Point 25 °F
Humidity 37%
Rainfall 0.00 in
Snow Depth Not available.
7:21 AM 5:40 PM
Waxing Crescent, 22% visible
METAR KCOD 121815Z AUTO 00000KT 10SM CLR 10/M04 A3022 RMK AO1

10-Day Weather Forecast

Almanac

Astronomy

Feb. 12, 2016 Rise Set
Actual Time
Civil Twilight
Nautical Twilight
Astronomical Twilight
Moon
Length of Visible Light
Length of Day
Tomorrow will be .
, % of the Moon is Illuminated

Today's Extremes

State Highs State Lows

Community

WunderPhotos

Upload Photos

1,892,366 photos uploaded!

WunderBlog® & News

Nearby

Air Quality

  Air Quality AQ Index Pollutant
Not available.

Snow Depth

Station Depth Elevation

Earthquake Activity

City Distance Mag. Time & Date
Minimum magnitude displayed is 2.5.

Coastal Water Temperatures

Place Temperature

Stations

Nearby Weather Stations

Station Location Temp. Windchill Dew Point Humidity Wind Precip. Elev Updated Type
                   

Watches & Warnings

There are currently no watches in effect.